createdAt,value
2023-05-10T00:00:25.709Z,30.60
2023-05-10T00:01:25.756Z,27.32
2023-05-10T00:02:25.821Z,26.94
2023-05-10T00:03:25.934Z,28.30
2023-05-10T00:04:25.842Z,27.64
2023-05-10T00:05:25.877Z,29.02
2023-05-10T00:06:25.922Z,28.49
2023-05-10T00:07:25.971Z,30.45
2023-05-10T00:08:26.015Z,29.70
2023-05-10T00:09:26.051Z,28.68
2023-05-10T00:10:26.094Z,27.41
2023-05-10T00:11:26.149Z,27.70
2023-05-10T00:12:26.175Z,28.09
2023-05-10T00:13:26.384Z,30.93
2023-05-10T00:14:26.270Z,28.43
2023-05-10T00:15:26.323Z,29.20
2023-05-10T00:16:26.388Z,29.27
2023-05-10T00:17:26.419Z,29.39
2023-05-10T00:18:26.456Z,31.46
2023-05-10T00:19:26.503Z,32.67
2023-05-10T00:20:26.538Z,30.60
2023-05-10T00:21:26.575Z,27.72
2023-05-10T00:22:26.613Z,30.34
2023-05-10T00:23:26.660Z,29.14
2023-05-10T00:24:26.702Z,26.88
2023-05-10T00:25:26.766Z,29.92
2023-05-10T00:26:26.842Z,30.43
2023-05-10T00:27:26.843Z,32.91
2023-05-10T00:28:26.885Z,31.24
2023-05-10T00:29:26.921Z,29.44
2023-05-10T00:30:26.961Z,30.79
2023-05-10T00:31:27.016Z,29.58
2023-05-10T00:32:27.100Z,29.00
2023-05-10T00:33:27.082Z,30.75
2023-05-10T00:34:27.134Z,27.77
2023-05-10T00:35:27.176Z,28.38
2023-05-10T00:36:27.297Z,28.37
2023-05-10T00:37:27.267Z,28.82
2023-05-10T00:38:27.292Z,28.86
2023-05-10T00:39:27.323Z,28.96
2023-05-10T00:40:27.435Z,28.18
2023-05-10T00:41:27.399Z,28.60
2023-05-10T00:42:27.435Z,30.11
2023-05-10T00:43:27.477Z,27.80
2023-05-10T00:44:27.520Z,30.29
2023-05-10T00:45:27.571Z,28.28
2023-05-10T00:46:27.609Z,28.43
2023-05-10T00:47:27.653Z,30.86
2023-05-10T00:48:27.674Z,28.43
2023-05-10T00:49:27.713Z,30.91
2023-05-10T00:50:27.765Z,29.49
2023-05-10T00:51:27.798Z,27.64
2023-05-10T00:52:27.828Z,28.91
2023-05-10T00:53:27.876Z,30.28
2023-05-10T00:54:27.901Z,30.17
2023-05-10T00:55:27.950Z,29.17
2023-05-10T00:56:27.988Z,29.00
2023-05-10T00:57:28.011Z,28.32
2023-05-10T00:58:28.049Z,31.44
2023-05-10T00:59:28.086Z,27.74
2023-05-10T01:00:28.124Z,27.75
2023-05-10T01:01:28.204Z,32.19
2023-05-10T01:02:28.282Z,30.07
2023-05-10T01:03:28.251Z,29.51
2023-05-10T01:04:28.340Z,28.88
2023-05-10T01:05:28.308Z,27.99
2023-05-10T01:06:28.348Z,29.80
2023-05-10T01:07:28.397Z,30.01
2023-05-10T01:08:28.441Z,28.45
2023-05-10T01:09:28.485Z,30.31
2023-05-10T01:10:28.517Z,27.94
2023-05-10T01:11:28.566Z,28.98
2023-05-10T01:12:28.633Z,27.75
2023-05-10T01:13:28.736Z,28.31
2023-05-10T01:14:28.693Z,29.92
2023-05-10T01:15:28.730Z,28.07
2023-05-10T01:16:28.844Z,29.77
2023-05-10T01:17:28.823Z,29.10
2023-05-10T01:18:28.838Z,29.36
2023-05-10T01:19:28.892Z,30.59
2023-05-10T01:20:28.921Z,29.48
2023-05-10T01:21:28.955Z,27.69
2023-05-10T01:22:28.997Z,28.47
2023-05-10T01:23:29.038Z,29.76
2023-05-10T01:24:29.075Z,29.97
2023-05-10T01:25:29.116Z,31.91
2023-05-10T01:26:29.160Z,31.78
2023-05-10T01:27:29.196Z,32.34
2023-05-10T01:28:29.248Z,29.25
2023-05-10T01:29:29.271Z,29.76
2023-05-10T01:30:29.320Z,31.48
2023-05-10T01:31:29.389Z,29.41
2023-05-10T01:32:29.426Z,29.49
2023-05-10T01:33:29.428Z,28.41
2023-05-10T01:34:29.454Z,31.38
2023-05-10T01:35:29.496Z,29.35
2023-05-10T01:36:29.543Z,28.80
2023-05-10T01:37:29.580Z,30.56
2023-05-10T01:38:29.633Z,31.22
2023-05-10T01:39:29.672Z,29.32
2023-05-10T01:40:29.705Z,29.90
2023-05-10T01:41:29.744Z,30.15
2023-05-10T01:42:30.550Z,30.42
2023-05-10T01:43:29.825Z,31.58
2023-05-10T01:44:29.851Z,30.36
2023-05-10T01:45:29.886Z,28.47
2023-05-10T01:46:29.998Z,30.93
2023-05-10T01:47:29.982Z,29.66
2023-05-10T01:48:30.014Z,31.26
2023-05-10T01:49:30.062Z,31.37
2023-05-10T01:50:30.098Z,31.39
2023-05-10T01:51:30.175Z,29.76
2023-05-10T01:52:30.174Z,29.77
2023-05-10T01:53:30.219Z,31.98
2023-05-10T01:54:30.278Z,28.29
2023-05-10T01:55:30.303Z,29.33
2023-05-10T01:56:30.340Z,30.62
2023-05-10T01:57:30.378Z,30.83
2023-05-10T01:58:30.423Z,33.19
2023-05-10T01:59:30.471Z,29.60
2023-05-10T02:00:30.551Z,29.75
2023-05-10T02:01:30.552Z,30.37
2023-05-10T02:02:30.655Z,31.65
2023-05-10T02:03:30.693Z,30.56
2023-05-10T02:04:30.676Z,30.19
2023-05-10T02:05:30.728Z,29.89
2023-05-10T02:06:30.755Z,30.14
2023-05-10T02:07:30.815Z,30.41
2023-05-10T02:08:30.837Z,30.65
2023-05-10T02:09:30.888Z,31.72
2023-05-10T02:10:30.926Z,30.84
2023-05-10T02:11:30.972Z,28.88
2023-05-10T02:12:31.557Z,31.04
2023-05-10T02:13:31.142Z,31.61
2023-05-10T02:14:31.110Z,27.85
2023-05-10T02:15:31.160Z,28.73
2023-05-10T02:16:31.223Z,34.10
2023-05-10T02:17:31.240Z,31.96
2023-05-10T02:18:31.295Z,29.55
2023-05-10T02:19:31.333Z,30.29
2023-05-10T02:20:31.377Z,32.00
2023-05-10T02:21:31.427Z,28.13
2023-05-10T02:22:31.472Z,33.40
2023-05-10T02:23:31.524Z,30.15
2023-05-10T02:24:31.558Z,28.76
2023-05-10T02:25:31.592Z,31.22
2023-05-10T02:26:31.623Z,30.13
2023-05-10T02:27:31.685Z,31.69
2023-05-10T02:28:31.724Z,29.73
2023-05-10T02:29:31.771Z,30.95
2023-05-10T02:30:31.805Z,29.56
2023-05-10T02:31:31.851Z,31.33
2023-05-10T02:32:31.937Z,29.95
2023-05-10T02:33:31.930Z,29.41
2023-05-10T02:34:31.960Z,32.04
2023-05-10T02:35:32.002Z,34.32
2023-05-10T02:36:32.045Z,31.32
2023-05-10T02:37:32.092Z,29.99
2023-05-10T02:38:32.161Z,29.76
2023-05-10T02:39:32.180Z,29.83
2023-05-10T02:40:32.228Z,32.82
2023-05-10T02:41:32.275Z,30.14
2023-05-10T02:42:32.315Z,30.61
2023-05-10T02:43:32.353Z,34.07
2023-05-10T02:44:32.414Z,31.41
2023-05-10T02:45:32.447Z,31.82
2023-05-10T02:46:32.573Z,30.93
2023-05-10T02:47:32.568Z,31.22
2023-05-10T02:48:32.592Z,32.44
2023-05-10T02:49:32.639Z,30.66
2023-05-10T02:50:32.670Z,31.79
2023-05-10T02:51:32.735Z,30.68
2023-05-10T02:52:32.773Z,29.12
2023-05-10T02:53:32.858Z,28.80
2023-05-10T02:54:32.875Z,31.72
2023-05-10T02:55:32.932Z,33.38
2023-05-10T02:56:32.962Z,31.91
2023-05-10T02:57:33.022Z,28.86
2023-05-10T02:58:33.092Z,31.07
2023-05-10T02:59:33.142Z,32.10
2023-05-10T03:00:33.175Z,33.59
2023-05-10T03:01:33.278Z,30.33
2023-05-10T03:02:33.390Z,31.38
2023-05-10T03:03:33.329Z,30.37
2023-05-10T03:04:33.381Z,29.93
2023-05-10T03:05:33.443Z,33.13
2023-05-10T03:06:33.484Z,28.79
2023-05-10T03:07:33.533Z,30.02
2023-05-10T03:08:33.569Z,30.63
2023-05-10T03:09:33.624Z,29.79
2023-05-10T03:10:33.683Z,30.95
2023-05-10T03:11:33.735Z,28.82
2023-05-10T03:12:33.769Z,30.66
2023-05-10T03:13:33.895Z,31.39
2023-05-10T03:14:33.877Z,30.33
2023-05-10T03:15:33.918Z,30.60
2023-05-10T03:16:34.013Z,29.94
2023-05-10T03:17:34.045Z,30.74
2023-05-10T03:18:34.048Z,33.42
2023-05-10T03:19:34.096Z,31.24
2023-05-10T03:20:34.134Z,34.13
2023-05-10T03:21:34.194Z,31.72
2023-05-10T03:22:34.243Z,33.75
2023-05-10T03:23:34.294Z,30.92
2023-05-10T03:24:34.349Z,33.33
2023-05-10T03:25:34.400Z,28.92
2023-05-10T03:26:34.449Z,32.63
2023-05-10T03:27:34.488Z,33.37
2023-05-10T03:28:34.552Z,32.22
2023-05-10T03:29:34.595Z,32.43
2023-05-10T03:30:34.638Z,31.19
2023-05-10T03:31:34.733Z,29.98
2023-05-10T03:32:34.755Z,31.25
2023-05-10T03:33:34.799Z,31.19
2023-05-10T03:34:34.845Z,33.70
2023-05-10T03:35:34.899Z,31.67
2023-05-10T03:36:34.947Z,34.36
2023-05-10T03:37:34.997Z,33.73
2023-05-10T03:38:35.053Z,32.01
2023-05-10T03:39:35.102Z,35.11
2023-05-10T03:40:35.158Z,32.25
2023-05-10T03:41:35.207Z,30.38
2023-05-10T03:42:35.271Z,33.79
2023-05-10T03:43:35.326Z,31.31
2023-05-10T03:44:35.378Z,32.70
2023-05-10T03:45:35.416Z,32.31
2023-05-10T03:46:35.477Z,31.59
2023-05-10T03:47:35.550Z,35.58
2023-05-10T03:48:35.572Z,31.94
2023-05-10T03:49:35.637Z,30.72
2023-05-10T03:50:35.689Z,32.84
2023-05-10T03:51:35.716Z,33.37
2023-05-10T03:52:35.776Z,32.55
2023-05-10T03:53:35.823Z,32.11
2023-05-10T03:54:35.888Z,34.52
2023-05-10T03:55:35.929Z,34.73
2023-05-10T03:56:35.984Z,30.94
2023-05-10T03:57:36.036Z,32.57
2023-05-10T03:58:36.099Z,34.07
2023-05-10T03:59:36.141Z,33.21
2023-05-10T04:00:36.210Z,34.45
2023-05-10T04:01:36.287Z,33.39
2023-05-10T04:02:36.433Z,30.14
2023-05-10T04:03:36.493Z,34.87
2023-05-10T04:04:36.413Z,33.05
2023-05-10T04:05:36.454Z,33.68
2023-05-10T04:06:36.565Z,33.49
2023-05-10T04:07:36.559Z,33.71
2023-05-10T04:08:36.622Z,31.52
2023-05-10T04:09:36.666Z,35.55
2023-05-10T04:10:36.714Z,33.75
2023-05-10T04:11:36.764Z,34.47
2023-05-10T04:12:36.838Z,34.49
2023-05-10T04:13:36.906Z,32.64
2023-05-10T04:14:36.924Z,33.24
2023-05-10T04:15:36.981Z,33.85
2023-05-10T04:16:37.114Z,33.64
2023-05-10T04:17:37.121Z,33.78
2023-05-10T04:18:37.137Z,33.39
2023-05-10T04:19:37.193Z,33.53
2023-05-10T04:20:37.251Z,34.59
2023-05-10T04:21:37.308Z,35.96
2023-05-10T04:22:37.354Z,33.55
2023-05-10T04:23:37.402Z,34.70
2023-05-10T04:24:37.444Z,36.38
2023-05-10T04:25:37.493Z,35.56
2023-05-10T04:26:37.558Z,35.31
2023-05-10T04:27:37.626Z,33.00
2023-05-10T04:28:37.690Z,34.18
2023-05-10T04:29:37.709Z,34.22
2023-05-10T04:30:37.782Z,34.97
2023-05-10T04:31:37.815Z,34.35
2023-05-10T04:32:37.897Z,35.52
2023-05-10T04:33:37.924Z,34.97
2023-05-10T04:34:37.967Z,31.99
2023-05-10T04:35:38.606Z,33.68
2023-05-10T04:36:38.080Z,33.03
2023-05-10T04:37:38.125Z,33.56
2023-05-10T04:38:38.183Z,31.30
2023-05-10T04:39:40.237Z,32.44
2023-05-10T04:40:38.230Z,38.03
2023-05-10T04:41:38.300Z,35.85
2023-05-10T04:42:38.225Z,37.60
2023-05-10T04:43:38.244Z,34.35
2023-05-10T04:44:38.225Z,34.94
2023-05-10T04:45:38.217Z,35.09
2023-05-10T04:46:38.222Z,35.92
2023-05-10T04:47:38.336Z,34.67
2023-05-10T04:48:38.214Z,34.37
2023-05-10T04:49:38.229Z,35.49
2023-05-10T04:50:38.210Z,32.49
2023-05-10T04:51:38.204Z,33.51
2023-05-10T04:52:38.207Z,33.60
2023-05-10T04:53:38.203Z,33.94
2023-05-10T04:54:38.205Z,33.30
2023-05-10T04:55:38.286Z,32.88
2023-05-10T04:56:38.215Z,35.23
2023-05-10T04:57:38.220Z,30.22
2023-05-10T04:58:38.215Z,35.40
2023-05-10T04:59:38.224Z,33.86
2023-05-10T05:00:38.214Z,35.77
2023-05-10T05:01:38.277Z,35.73
2023-05-10T05:02:38.283Z,35.76
2023-05-10T05:03:38.327Z,32.51
2023-05-10T05:04:38.243Z,32.45
2023-05-10T05:05:38.228Z,35.15
2023-05-10T05:06:38.239Z,32.63
2023-05-10T05:07:38.231Z,33.56
2023-05-10T05:08:38.242Z,32.96
2023-05-10T05:09:38.239Z,33.95
2023-05-10T05:10:38.241Z,30.90
2023-05-10T05:11:38.256Z,36.01
2023-05-10T05:12:38.254Z,32.53
2023-05-10T05:13:38.263Z,32.69
2023-05-10T05:14:38.271Z,34.04
2023-05-10T05:15:38.306Z,33.43
2023-05-10T05:16:38.293Z,32.93
2023-05-10T05:17:38.365Z,31.50
2023-05-10T05:18:38.303Z,25.22
2023-05-10T05:19:38.272Z,25.02
2023-05-10T05:20:38.283Z,55.05
2023-05-10T05:21:38.291Z,59.56
2023-05-10T05:22:38.295Z,76.52
2023-05-10T05:23:38.313Z,81.61
2023-05-10T05:24:38.328Z,96.44
2023-05-10T05:25:39.129Z,89.11
2023-05-10T05:26:38.320Z,92.82
2023-05-10T05:27:38.333Z,88.20
2023-05-10T05:28:38.350Z,89.91
2023-05-10T05:29:38.362Z,93.58
2023-05-10T05:30:38.383Z,92.31
2023-05-10T05:31:38.445Z,77.10
2023-05-10T05:32:38.508Z,70.12
2023-05-10T05:33:39.195Z,68.86
2023-05-10T05:34:38.559Z,78.99
2023-05-10T05:35:38.587Z,80.71
2023-05-10T05:36:38.637Z,80.21
2023-05-10T05:37:38.642Z,81.57
2023-05-10T05:38:38.668Z,88.32
2023-05-10T05:39:38.681Z,86.13
2023-05-10T05:40:38.696Z,86.56
2023-05-10T05:41:38.705Z,88.71
2023-05-10T05:42:38.742Z,89.06
2023-05-10T05:43:38.803Z,92.46
2023-05-10T05:44:38.786Z,92.32
2023-05-10T05:45:38.836Z,95.47
2023-05-10T05:46:38.879Z,95.89
2023-05-10T05:47:38.947Z,96.20
2023-05-10T05:48:38.990Z,98.25
2023-05-10T05:49:39.048Z,97.19
2023-05-10T05:50:39.119Z,97.47
2023-05-10T05:51:39.187Z,98.82
2023-05-10T05:52:39.255Z,98.27
2023-05-10T05:53:39.359Z,98.04
2023-05-10T05:54:39.424Z,97.55
2023-05-10T05:55:39.448Z,101.29
2023-05-10T05:56:39.561Z,104.24
2023-05-10T05:57:39.581Z,106.13
2023-05-10T05:58:39.649Z,110.14
2023-05-10T05:59:39.721Z,106.24
2023-05-10T06:00:39.770Z,106.76
2023-05-10T06:01:39.832Z,106.04
2023-05-10T06:02:40.044Z,105.21
2023-05-10T06:03:40.017Z,101.02
2023-05-10T06:04:40.163Z,106.17
2023-05-10T06:05:40.074Z,103.46
2023-05-10T06:06:40.132Z,103.71
2023-05-10T06:07:40.203Z,104.53
2023-05-10T06:08:40.259Z,106.01
2023-05-10T06:09:41.131Z,108.70
2023-05-10T06:10:40.367Z,109.33
2023-05-10T06:11:40.435Z,112.54
2023-05-10T06:12:40.509Z,109.54
2023-05-10T06:13:40.560Z,108.42
2023-05-10T06:14:40.596Z,107.33
2023-05-10T06:15:40.671Z,110.75
2023-05-10T06:16:40.823Z,108.56
2023-05-10T06:17:40.797Z,107.73
2023-05-10T06:18:40.830Z,112.89
2023-05-10T06:19:40.868Z,111.50
2023-05-10T06:20:40.928Z,109.13
2023-05-10T06:21:40.965Z,113.51
2023-05-10T06:22:41.018Z,114.95
2023-05-10T06:23:41.063Z,89.40
2023-05-10T06:24:41.142Z,67.28
2023-05-10T06:25:41.235Z,32.50
2023-05-10T06:26:41.247Z,35.60
2023-05-10T06:27:41.283Z,25.00
2023-05-10T06:28:41.293Z,26.30
2023-05-10T06:29:42.637Z,37.29
2023-05-10T06:30:41.392Z,49.04
2023-05-10T06:31:41.518Z,42.74
2023-05-10T06:32:41.610Z,35.81
2023-05-10T06:33:42.147Z,34.88
2023-05-10T06:34:41.694Z,37.58
2023-05-10T06:35:41.747Z,52.70
2023-05-10T06:36:41.774Z,54.19
2023-05-10T06:37:41.830Z,68.58
2023-05-10T06:38:41.873Z,64.23
2023-05-10T06:39:41.912Z,50.47
2023-05-10T06:40:41.922Z,42.56
2023-05-10T06:41:41.972Z,25.69
2023-05-10T06:42:42.005Z,26.83
2023-05-10T06:43:42.032Z,29.29
2023-05-10T06:44:42.063Z,32.99
2023-05-10T06:45:42.110Z,40.50
2023-05-10T06:46:42.182Z,69.16
2023-05-10T06:47:42.194Z,59.52
2023-05-10T06:48:42.194Z,35.61
2023-05-10T06:49:42.206Z,35.86
2023-05-10T06:50:42.229Z,37.09
2023-05-10T06:51:42.238Z,37.60
2023-05-10T06:52:42.249Z,48.97
2023-05-10T06:53:42.351Z,61.04
2023-05-10T06:54:42.288Z,55.70
2023-05-10T06:55:42.299Z,66.96
2023-05-10T06:56:42.315Z,62.32
2023-05-10T06:57:42.345Z,62.52
2023-05-10T06:58:42.404Z,60.52
2023-05-10T06:59:42.379Z,53.55
2023-05-10T07:00:42.429Z,51.15
2023-05-10T07:01:42.427Z,42.45
2023-05-10T07:02:42.500Z,47.15
2023-05-10T07:03:43.166Z,39.75
2023-05-10T07:04:42.489Z,54.51
2023-05-10T07:05:42.536Z,55.24
2023-05-10T07:06:42.560Z,65.00
2023-05-10T07:07:42.632Z,75.55
2023-05-10T07:08:42.646Z,52.72
2023-05-10T07:09:42.651Z,19.48
2023-05-10T07:10:42.670Z,21.28
2023-05-10T07:11:42.690Z,31.80
2023-05-10T07:12:42.816Z,22.43
2023-05-10T07:13:42.754Z,25.00
2023-05-10T07:14:42.848Z,25.00
2023-05-10T07:15:42.849Z,29.34
2023-05-10T07:16:42.855Z,28.95
2023-05-10T07:17:45.497Z,41.17
2023-05-10T07:18:43.749Z,52.37
2023-05-10T07:19:43.865Z,53.08
2023-05-10T07:20:43.655Z,57.17
2023-05-10T07:21:42.905Z,64.20
2023-05-10T07:22:42.898Z,86.47
2023-05-10T07:23:44.965Z,110.67
2023-05-10T07:24:42.929Z,122.87
2023-05-10T07:25:43.661Z,128.38
2023-05-10T07:26:43.019Z,129.55
2023-05-10T07:27:42.975Z,137.50
2023-05-10T07:28:43.013Z,143.94
2023-05-10T07:29:43.074Z,151.94
2023-05-10T07:30:43.218Z,157.72
2023-05-10T07:31:43.184Z,161.59
2023-05-10T07:32:50.164Z,167.61
2023-05-10T07:33:43.238Z,168.30
2023-05-10T07:34:43.172Z,171.00
2023-05-10T07:35:44.175Z,176.45
2023-05-10T07:36:43.187Z,169.03
2023-05-10T07:37:43.950Z,174.04
2023-05-10T07:38:43.168Z,185.48
2023-05-10T07:39:43.155Z,201.27
2023-05-10T07:40:43.136Z,228.22
2023-05-10T07:41:43.669Z,236.30
2023-05-10T07:42:43.169Z,242.89
2023-05-10T07:43:43.115Z,247.00
2023-05-10T07:44:43.116Z,250.00
2023-05-10T07:45:43.123Z,250.00
2023-05-10T07:46:43.096Z,250.00
2023-05-10T07:47:43.149Z,250.00
2023-05-10T07:48:43.687Z,250.00
2023-05-10T07:49:43.072Z,249.61
2023-05-10T07:50:43.055Z,249.41
2023-05-10T07:51:43.051Z,248.76
2023-05-10T07:52:43.051Z,249.96
2023-05-10T07:53:43.665Z,250.42
2023-05-10T07:54:43.044Z,251.59
2023-05-10T07:55:43.661Z,255.75
2023-05-10T07:56:43.008Z,262.04
2023-05-10T07:57:43.001Z,272.50
2023-05-10T07:58:43.006Z,253.84
2023-05-10T07:59:43.005Z,254.20
2023-05-10T08:00:44.686Z,255.42
2023-05-10T08:01:43.182Z,258.13
2023-05-10T08:02:42.988Z,262.43
2023-05-10T08:03:43.036Z,270.24
2023-05-10T08:04:43.790Z,253.88
2023-05-10T08:05:42.909Z,254.21
2023-05-10T08:06:43.789Z,255.26
2023-05-10T08:07:42.910Z,258.70
2023-05-10T08:08:42.892Z,263.99
2023-05-10T08:09:42.868Z,273.22
2023-05-10T08:10:42.916Z,259.71
2023-05-10T08:11:42.841Z,249.40
2023-05-10T08:12:42.823Z,250.00
2023-05-10T08:13:42.817Z,248.93
2023-05-10T08:14:42.795Z,250.00
2023-05-10T08:15:42.860Z,223.37
2023-05-10T08:16:42.780Z,191.77
2023-05-10T08:17:42.814Z,157.37
2023-05-10T08:18:42.856Z,128.82
2023-05-10T08:19:42.795Z,135.55
2023-05-10T08:20:42.789Z,113.00
2023-05-10T08:21:42.787Z,99.49
2023-05-10T08:22:46.137Z,67.10
2023-05-10T08:23:42.800Z,46.90
2023-05-10T08:24:42.839Z,41.58
2023-05-10T08:25:43.190Z,62.01
2023-05-10T08:26:43.892Z,67.64
2023-05-10T08:27:42.854Z,69.81
2023-05-10T08:28:42.852Z,74.36
2023-05-10T08:29:50.215Z,68.04
2023-05-10T08:30:43.596Z,68.26
2023-05-10T08:31:43.001Z,72.02
2023-05-10T08:32:42.896Z,78.48
2023-05-10T08:33:44.542Z,87.81
2023-05-10T08:34:42.865Z,103.13
2023-05-10T08:35:42.858Z,107.03
2023-05-10T08:36:42.857Z,108.78
2023-05-10T08:37:42.862Z,112.42
2023-05-10T08:38:42.851Z,116.75
2023-05-10T08:39:43.683Z,120.87
2023-05-10T08:40:42.849Z,124.18
2023-05-10T08:41:42.857Z,127.53
2023-05-10T08:42:42.870Z,131.52
2023-05-10T08:43:42.918Z,136.31
2023-05-10T08:44:44.712Z,140.83
2023-05-10T08:45:42.909Z,143.89
2023-05-10T08:46:48.932Z,144.16
2023-05-10T08:47:42.898Z,144.42
2023-05-10T08:48:44.061Z,146.12
2023-05-10T08:49:42.855Z,151.04
2023-05-10T08:50:42.872Z,156.72
2023-05-10T08:51:43.908Z,144.98
2023-05-10T08:52:42.816Z,148.60
2023-05-10T08:53:43.085Z,155.81
2023-05-10T08:54:44.706Z,145.35
2023-05-10T08:55:42.782Z,150.28
2023-05-10T08:56:42.916Z,159.76
2023-05-10T08:57:44.091Z,174.32
2023-05-10T08:58:42.744Z,196.26
2023-05-10T08:59:42.737Z,200.55
2023-05-10T09:00:44.203Z,200.88
2023-05-10T09:01:42.710Z,201.05
2023-05-10T09:02:42.701Z,202.53
2023-05-10T09:03:42.714Z,206.04
2023-05-10T09:04:42.736Z,213.23
2023-05-10T09:05:43.213Z,201.59
2023-05-10T09:06:42.602Z,204.95
2023-05-10T09:07:42.599Z,211.53
2023-05-10T09:08:42.587Z,220.80
2023-05-10T09:09:42.588Z,235.47
2023-05-10T09:10:43.217Z,239.84
2023-05-10T09:11:43.219Z,241.62
2023-05-10T09:12:42.741Z,243.80
2023-05-10T09:13:42.750Z,246.39
2023-05-10T09:14:42.601Z,249.77
2023-05-10T09:15:42.528Z,250.20
2023-05-10T09:16:42.552Z,248.94
2023-05-10T09:17:42.600Z,248.11
2023-05-10T09:18:42.520Z,245.99
2023-05-10T09:19:42.495Z,246.66
2023-05-10T09:20:42.487Z,244.16
2023-05-10T09:21:42.473Z,244.72
2023-05-10T09:22:42.467Z,245.34
2023-05-10T09:23:42.464Z,245.39
2023-05-10T09:24:42.445Z,246.22
2023-05-10T09:25:42.457Z,245.99
2023-05-10T09:26:42.449Z,245.81
2023-05-10T09:27:42.476Z,245.87
2023-05-10T09:28:42.461Z,248.05
2023-05-10T09:29:42.479Z,247.48
2023-05-10T09:30:42.528Z,246.96
2023-05-10T09:31:42.526Z,247.42
2023-05-10T09:32:42.584Z,248.11
2023-05-10T09:33:42.529Z,248.53
2023-05-10T09:34:42.554Z,247.84
2023-05-10T09:35:42.580Z,246.58
2023-05-10T09:36:42.619Z,248.53
2023-05-10T09:37:42.597Z,248.46
2023-05-10T09:38:42.621Z,245.94
2023-05-10T09:39:42.636Z,246.06
2023-05-10T09:40:42.711Z,246.30
2023-05-10T09:41:42.692Z,246.82
2023-05-10T09:42:42.726Z,246.83
2023-05-10T09:43:42.730Z,246.38
2023-05-10T09:44:42.754Z,245.16
2023-05-10T09:45:42.793Z,245.72
2023-05-10T09:46:42.902Z,245.36
2023-05-10T09:47:42.875Z,244.72
2023-05-10T09:48:42.868Z,244.54
2023-05-10T09:49:42.901Z,242.61
2023-05-10T09:50:42.945Z,244.29
2023-05-10T09:51:42.960Z,243.49
2023-05-10T09:52:42.994Z,244.52
2023-05-10T09:53:43.024Z,241.95
2023-05-10T09:54:43.061Z,242.93
2023-05-10T09:55:43.085Z,240.71
2023-05-10T09:56:43.142Z,241.38
2023-05-10T09:57:43.156Z,241.70
2023-05-10T09:58:43.166Z,239.19
2023-05-10T09:59:43.206Z,239.21
2023-05-10T10:00:43.260Z,239.95
2023-05-10T10:01:43.310Z,237.23
2023-05-10T10:03:19.845Z,25.00
2023-05-10T10:04:19.849Z,25.00
2023-05-10T10:05:19.841Z,25.00
2023-05-10T10:06:29.571Z,25.00
2023-05-10T10:07:19.872Z,25.00
2023-05-10T10:08:19.894Z,25.00
2023-05-10T10:09:19.911Z,25.00
2023-05-10T10:10:19.950Z,25.00
2023-05-10T10:11:19.938Z,25.00
2023-05-10T10:12:19.958Z,27.11
2023-05-10T10:13:19.983Z,25.50
2023-05-10T10:14:19.982Z,26.53
2023-05-10T10:15:20.147Z,26.92
2023-05-10T10:16:20.095Z,25.00
2023-05-10T10:17:20.027Z,27.00
2023-05-10T10:18:20.080Z,27.67
2023-05-10T10:19:20.099Z,27.88
2023-05-10T10:20:20.349Z,28.26
2023-05-10T10:21:20.320Z,26.88
2023-05-10T10:22:20.074Z,25.68
2023-05-10T10:23:20.087Z,26.30
2023-05-10T10:24:21.999Z,25.90
2023-05-10T10:25:20.169Z,26.34
2023-05-10T10:26:20.130Z,26.75
2023-05-10T10:27:20.131Z,27.78
2023-05-10T10:28:20.148Z,25.10
2023-05-10T10:29:20.150Z,26.29
2023-05-10T10:30:20.169Z,26.69
2023-05-10T10:31:20.242Z,27.21
2023-05-10T10:32:20.234Z,25.14
2023-05-10T10:33:28.576Z,24.67
2023-05-10T10:34:20.237Z,26.01
2023-05-10T10:35:20.233Z,24.62
2023-05-10T10:36:20.274Z,23.37
2023-05-10T10:37:20.297Z,21.29
2023-05-10T10:38:20.336Z,17.95
2023-05-10T10:39:20.332Z,26.55
2023-05-10T10:40:20.426Z,28.08
2023-05-10T10:41:20.458Z,27.89
2023-05-10T10:42:20.447Z,25.00
2023-05-10T10:43:20.444Z,25.37
2023-05-10T10:44:20.471Z,28.45
2023-05-10T10:45:20.418Z,27.24
2023-05-10T10:46:20.465Z,27.91
2023-05-10T10:47:20.460Z,28.23
2023-05-10T10:48:20.509Z,26.62
2023-05-10T10:49:20.550Z,25.66
2023-05-10T10:50:20.515Z,26.71
2023-05-10T10:51:20.589Z,27.17
2023-05-10T10:52:20.573Z,27.74
2023-05-10T10:53:20.668Z,25.19
2023-05-10T10:54:20.598Z,29.29
2023-05-10T10:55:20.751Z,25.40
2023-05-10T10:56:20.645Z,29.43
2023-05-10T10:57:20.679Z,26.86
2023-05-10T10:58:20.678Z,28.62
2023-05-10T10:59:20.713Z,27.94
2023-05-10T11:00:20.767Z,27.46
2023-05-10T11:01:20.925Z,26.51
2023-05-10T11:02:20.856Z,26.42
2023-05-10T11:03:20.899Z,27.80
2023-05-10T11:04:20.977Z,27.13
2023-05-10T11:05:21.014Z,29.45
2023-05-10T11:06:21.048Z,28.86
2023-05-10T11:07:21.097Z,27.41
2023-05-10T11:08:21.150Z,28.90
2023-05-10T11:09:21.208Z,27.63
2023-05-10T11:10:21.258Z,28.16
2023-05-10T11:11:21.295Z,26.23
2023-05-10T11:12:21.338Z,26.57
2023-05-10T11:13:21.424Z,25.50
2023-05-10T11:14:21.455Z,30.24
2023-05-10T11:15:21.491Z,29.05
2023-05-10T11:16:21.624Z,27.46
2023-05-10T11:17:21.592Z,26.76
2023-05-10T11:18:21.669Z,29.03
2023-05-10T11:19:21.682Z,28.88
2023-05-10T11:20:21.735Z,26.83
2023-05-10T11:21:21.785Z,27.87
2023-05-10T11:22:21.860Z,26.84
2023-05-10T11:23:21.906Z,27.42
2023-05-10T11:24:21.975Z,25.05
2023-05-10T11:25:22.009Z,26.41
2023-05-10T11:26:22.079Z,26.40
2023-05-10T11:27:22.115Z,28.31
2023-05-10T11:28:22.172Z,26.96
2023-05-10T11:29:22.282Z,28.68
2023-05-10T11:30:22.282Z,26.68
2023-05-10T11:31:22.500Z,26.27
2023-05-10T11:32:22.445Z,26.76
2023-05-10T11:33:22.434Z,27.39
2023-05-10T11:34:22.507Z,26.76
2023-05-10T11:35:22.540Z,27.21
2023-05-10T11:36:22.593Z,26.41
2023-05-10T11:37:22.645Z,28.52
2023-05-10T11:38:22.702Z,26.62
2023-05-10T11:39:22.756Z,26.37
2023-05-10T11:40:22.812Z,27.32
2023-05-10T11:41:22.850Z,25.61
2023-05-10T11:42:22.888Z,27.02
2023-05-10T11:43:22.933Z,25.65
2023-05-10T11:44:23.008Z,28.51
2023-05-10T11:45:23.049Z,26.86
2023-05-10T11:46:23.162Z,25.03
2023-05-10T11:47:23.202Z,26.33
2023-05-10T11:48:23.228Z,26.58
2023-05-10T11:49:23.256Z,28.40
2023-05-10T11:50:23.320Z,26.77
2023-05-10T11:51:23.365Z,26.40
2023-05-10T11:52:23.427Z,25.48
2023-05-10T11:53:25.814Z,27.65
2023-05-10T11:54:23.520Z,25.26
2023-05-10T11:55:23.581Z,28.40
2023-05-10T11:56:23.625Z,28.48
2023-05-10T11:57:23.672Z,29.98
2023-05-10T11:58:23.729Z,28.24
2023-05-10T11:59:23.762Z,30.55
2023-05-10T12:00:23.824Z,27.87
2023-05-10T12:01:23.882Z,28.71
2023-05-10T12:02:24.063Z,28.27
2023-05-10T12:03:24.191Z,27.20
2023-05-10T12:04:24.056Z,30.15
2023-05-10T12:05:24.100Z,29.23
2023-05-10T12:06:24.165Z,27.10
2023-05-10T12:07:24.204Z,30.66
2023-05-10T12:08:24.257Z,28.69
2023-05-10T12:09:39.638Z,27.61
2023-05-10T12:10:24.351Z,27.85
2023-05-10T12:11:24.510Z,28.27
2023-05-10T12:12:24.369Z,27.76
2023-05-10T12:13:24.388Z,25.03
2023-05-10T12:14:24.411Z,24.04
2023-05-10T12:15:24.492Z,27.39
2023-05-10T12:16:24.510Z,27.75
2023-05-10T12:17:24.493Z,28.14
2023-05-10T12:18:24.534Z,28.96
2023-05-10T12:19:24.507Z,28.36
2023-05-10T12:20:24.524Z,29.06
2023-05-10T12:21:24.551Z,30.72
2023-05-10T12:22:24.572Z,26.80
2023-05-10T12:23:24.602Z,28.93
2023-05-10T12:24:24.623Z,26.00
2023-05-10T12:25:24.640Z,26.54
2023-05-10T12:26:24.662Z,26.19
2023-05-10T12:27:24.676Z,25.76
2023-05-10T12:28:24.703Z,28.83
2023-05-10T12:29:24.764Z,25.75
2023-05-10T12:30:24.795Z,29.46
2023-05-10T12:31:24.909Z,28.75
2023-05-10T12:32:24.901Z,27.78
2023-05-10T12:33:24.955Z,27.93
2023-05-10T12:34:25.006Z,27.46
2023-05-10T12:35:25.091Z,27.96
2023-05-10T12:36:25.120Z,28.27
2023-05-10T12:37:25.176Z,27.29
2023-05-10T12:38:25.225Z,28.36
2023-05-10T12:39:25.389Z,26.44
2023-05-10T12:40:25.351Z,27.63
2023-05-10T12:41:25.391Z,26.93
2023-05-10T12:42:25.467Z,26.88
2023-05-10T12:43:25.523Z,27.86
2023-05-10T12:44:25.564Z,25.98
2023-05-10T12:45:26.613Z,26.27
2023-05-10T12:46:25.658Z,26.41
2023-05-10T12:47:25.662Z,26.15
2023-05-10T12:48:25.652Z,24.49